sensor_id;sensor_type;location;lat;lon;timestamp;temperature;humidity
1455;DHT22;721;48.168;12.818;2023-04-06T00:02:18;2.00;1.00
1455;DHT22;721;48.168;12.818;2023-04-06T00:04:45;2.00;1.00
1455;DHT22;721;48.168;12.818;2023-04-06T00:07:12;1.80;1.00
1455;DHT22;721;48.168;12.818;2023-04-06T00:09:38;1.80;1.00
1455;DHT22;721;48.168;12.818;2023-04-06T00:12:06;1.80;1.00
1455;DHT22;721;48.168;12.818;2023-04-06T00:14:33;1.80;1.00
1455;DHT22;721;48.168;12.818;2023-04-06T00:17:01;1.80;1.00
1455;DHT22;721;48.168;12.818;2023-04-06T00:19:28;1.80;1.00
1455;DHT22;721;48.168;12.818;2023-04-06T00:21:54;1.90;1.00
1455;DHT22;721;48.168;12.818;2023-04-06T00:24:21;1.80;1.00
1455;DHT22;721;48.168;12.818;2023-04-06T00:26:48;1.60;1.40
1455;DHT22;721;48.168;12.818;2023-04-06T00:29:15;1.60;1.00
1455;DHT22;721;48.168;12.818;2023-04-06T00:31:41;1.60;1.00
1455;DHT22;721;48.168;12.818;2023-04-06T00:34:10;1.50;1.80
1455;DHT22;721;48.168;12.818;2023-04-06T00:36:36;1.40;1.00
1455;DHT22;721;48.168;12.818;2023-04-06T00:39:03;1.40;1.30
1455;DHT22;721;48.168;12.818;2023-04-06T00:41:30;1.40;1.00
1455;DHT22;721;48.168;12.818;2023-04-06T00:43:57;1.40;1.50
1455;DHT22;721;48.168;12.818;2023-04-06T00:46:24;1.30;2.70
1455;DHT22;721;48.168;12.818;2023-04-06T00:48:51;1.60;1.60
1455;DHT22;721;48.168;12.818;2023-04-06T00:51:19;1.10;1.70
1455;DHT22;721;48.168;12.818;2023-04-06T00:53:45;1.20;1.30
1455;DHT22;721;48.168;12.818;2023-04-06T00:56:12;1.20;1.00
1455;DHT22;721;48.168;12.818;2023-04-06T00:58:39;1.20;1.00
1455;DHT22;721;48.168;12.818;2023-04-06T01:01:06;1.20;1.00
1455;DHT22;721;48.168;12.818;2023-04-06T01:03:33;1.00;1.90
1455;DHT22;721;48.168;12.818;2023-04-06T01:06:00;0.80;2.60
1455;DHT22;721;48.168;12.818;2023-04-06T01:08:28;0.80;2.70
1455;DHT22;721;48.168;12.818;2023-04-06T01:10:55;0.60;3.60
1455;DHT22;721;48.168;12.818;2023-04-06T01:13:22;0.60;4.00
1455;DHT22;721;48.168;12.818;2023-04-06T01:15:49;0.60;3.00
1455;DHT22;721;48.168;12.818;2023-04-06T01:18:16;0.60;3.50
1455;DHT22;721;48.168;12.818;2023-04-06T01:20:43;0.50;3.30
1455;DHT22;721;48.168;12.818;2023-04-06T01:23:11;0.40;4.20
1455;DHT22;721;48.168;12.818;2023-04-06T01:25:38;0.30;5.90
1455;DHT22;721;48.168;12.818;2023-04-06T01:28:04;0.40;3.30
1455;DHT22;721;48.168;12.818;2023-04-06T01:30:31;0.30;4.70
1455;DHT22;721;48.168;12.818;2023-04-06T01:32:58;0.30;4.70
1455;DHT22;721;48.168;12.818;2023-04-06T01:35:26;0.40;4.00
1455;DHT22;721;48.168;12.818;2023-04-06T01:37:53;0.30;4.80
1455;DHT22;721;48.168;12.818;2023-04-06T01:40:22;0.30;4.50
1455;DHT22;721;48.168;12.818;2023-04-06T01:42:48;0.40;4.10
1455;DHT22;721;48.168;12.818;2023-04-06T01:45:15;0.40;3.30
1455;DHT22;721;48.168;12.818;2023-04-06T01:47:42;0.50;1.10
1455;DHT22;721;48.168;12.818;2023-04-06T01:50:09;0.60;2.00
1455;DHT22;721;48.168;12.818;2023-04-06T01:52:37;0.50;3.80
1455;DHT22;721;48.168;12.818;2023-04-06T01:55:04;0.40;4.80
1455;DHT22;721;48.168;12.818;2023-04-06T01:57:32;0.50;3.60
1455;DHT22;721;48.168;12.818;2023-04-06T02:00:00;0.50;3.80
1455;DHT22;721;48.168;12.818;2023-04-06T02:02:27;0.50;3.20
1455;DHT22;721;48.168;12.818;2023-04-06T02:04:53;0.50;2.60
1455;DHT22;721;48.168;12.818;2023-04-06T02:07:21;0.50;1.60
1455;DHT22;721;48.168;12.818;2023-04-06T02:09:48;0.60;2.80
1455;DHT22;721;48.168;12.818;2023-04-06T02:12:14;0.60;1.80
1455;DHT22;721;48.168;12.818;2023-04-06T02:14:43;0.60;2.50
1455;DHT22;721;48.168;12.818;2023-04-06T02:17:09;0.70;2.30
1455;DHT22;721;48.168;12.818;2023-04-06T02:19:36;0.70;1.50
1455;DHT22;721;48.168;12.818;2023-04-06T02:22:03;0.70;1.40
1455;DHT22;721;48.168;12.818;2023-04-06T02:24:30;0.70;1.00
1455;DHT22;721;48.168;12.818;2023-04-06T02:26:56;0.70;1.00
1455;DHT22;721;48.168;12.818;2023-04-06T02:29:23;0.70;1.00
1455;DHT22;721;48.168;12.818;2023-04-06T02:31:51;0.80;1.00
1455;DHT22;721;48.168;12.818;2023-04-06T02:34:18;0.80;1.00
1455;DHT22;721;48.168;12.818;2023-04-06T02:36:46;0.80;1.00
1455;DHT22;721;48.168;12.818;2023-04-06T02:39:13;0.80;1.00
1455;DHT22;721;48.168;12.818;2023-04-06T02:41:40;0.90;1.00
1455;DHT22;721;48.168;12.818;2023-04-06T02:44:07;0.80;1.00
1455;DHT22;721;48.168;12.818;2023-04-06T02:46:35;0.80;1.00
1455;DHT22;721;48.168;12.818;2023-04-06T02:49:03;0.60;1.40
1455;DHT22;721;48.168;12.818;2023-04-06T02:51:30;0.30;2.90
1455;DHT22;721;48.168;12.818;2023-04-06T02:53:56;0.20;3.10
1455;DHT22;721;48.168;12.818;2023-04-06T02:56:23;0.00;3.80
1455;DHT22;721;48.168;12.818;2023-04-06T02:58:50;0.00;4.50
1455;DHT22;721;48.168;12.818;2023-04-06T03:01:17;-0.10;3.80
1455;DHT22;721;48.168;12.818;2023-04-06T03:03:43;0.00;2.40
1455;DHT22;721;48.168;12.818;2023-04-06T03:06:11;-0.10;4.00
1455;DHT22;721;48.168;12.818;2023-04-06T03:08:38;-0.20;4.60
1455;DHT22;721;48.168;12.818;2023-04-06T03:11:05;-0.40;6.60
1455;DHT22;721;48.168;12.818;2023-04-06T03:13:32;-0.30;5.60
1455;DHT22;721;48.168;12.818;2023-04-06T03:15:58;-0.20;4.40
1455;DHT22;721;48.168;12.818;2023-04-06T03:18:25;-0.10;4.40
1455;DHT22;721;48.168;12.818;2023-04-06T03:20:52;0.20;4.70
1455;DHT22;721;48.168;12.818;2023-04-06T03:23:21;-0.10;3.60
1455;DHT22;721;48.168;12.818;2023-04-06T03:25:48;0.00;2.10
1455;DHT22;721;48.168;12.818;2023-04-06T03:28:15;0.00;2.90
1455;DHT22;721;48.168;12.818;2023-04-06T03:30:42;0.10;2.50
1455;DHT22;721;48.168;12.818;2023-04-06T03:33:09;0.00;2.20
1455;DHT22;721;48.168;12.818;2023-04-06T03:35:36;0.00;2.60
1455;DHT22;721;48.168;12.818;2023-04-06T03:38:02;0.00;1.80
1455;DHT22;721;48.168;12.818;2023-04-06T03:40:31;0.00;2.30
1455;DHT22;721;48.168;12.818;2023-04-06T03:42:57;-0.10;2.80
1455;DHT22;721;48.168;12.818;2023-04-06T03:45:24;-0.30;4.30
1455;DHT22;721;48.168;12.818;2023-04-06T03:47:51;-0.30;3.60
1455;DHT22;721;48.168;12.818;2023-04-06T03:50:18;-0.40;4.20
1455;DHT22;721;48.168;12.818;2023-04-06T03:52:44;-0.30;3.10
1455;DHT22;721;48.168;12.818;2023-04-06T03:55:11;-0.20;2.30
1455;DHT22;721;48.168;12.818;2023-04-06T03:57:39;-0.20;2.90
1455;DHT22;721;48.168;12.818;2023-04-06T04:00:08;-0.40;4.70
1455;DHT22;721;48.168;12.818;2023-04-06T04:02:34;-0.50;4.60
1455;DHT22;721;48.168;12.818;2023-04-06T04:05:02;-0.40;4.20
1455;DHT22;721;48.168;12.818;2023-04-06T04:07:29;-0.40;4.20
1455;DHT22;721;48.168;12.818;2023-04-06T04:09:56;-0.30;4.30
1455;DHT22;721;48.168;12.818;2023-04-06T04:12:23;-0.30;4.30
1455;DHT22;721;48.168;12.818;2023-04-06T04:14:51;-0.40;3.20
1455;DHT22;721;48.168;12.818;2023-04-06T04:17:18;-0.50;4.20
1455;DHT22;721;48.168;12.818;2023-04-06T04:19:45;-0.50;4.10
1455;DHT22;721;48.168;12.818;2023-04-06T04:22:11;-0.60;3.70
1455;DHT22;721;48.168;12.818;2023-04-06T04:24:38;-0.60;4.10
1455;DHT22;721;48.168;12.818;2023-04-06T04:27:05;-0.50;4.10
1455;DHT22;721;48.168;12.818;2023-04-06T04:29:32;-0.50;4.20
1455;DHT22;721;48.168;12.818;2023-04-06T04:32:00;-0.50;4.20
1455;DHT22;721;48.168;12.818;2023-04-06T04:34:26;-0.50;2.30
1455;DHT22;721;48.168;12.818;2023-04-06T04:36:53;-0.40;1.90
1455;DHT22;721;48.168;12.818;2023-04-06T04:39:20;-0.40;2.30
1455;DHT22;721;48.168;12.818;2023-04-06T04:45:10;-0.50;3.30
1455;DHT22;721;48.168;12.818;2023-04-06T04:47:38;-0.70;4.70
1455;DHT22;721;48.168;12.818;2023-04-06T04:50:06;-0.70;4.20
1455;DHT22;721;48.168;12.818;2023-04-06T04:52:33;-0.70;4.00
1455;DHT22;721;48.168;12.818;2023-04-06T04:54:59;-0.70;4.00
1455;DHT22;721;48.168;12.818;2023-04-06T04:57:26;-0.70;4.00
1455;DHT22;721;48.168;12.818;2023-04-06T04:59:53;-0.80;5.10
1455;DHT22;721;48.168;12.818;2023-04-06T05:02:20;-0.90;5.70
1455;DHT22;721;48.168;12.818;2023-04-06T05:04:48;-0.90;6.20
1455;DHT22;721;48.168;12.818;2023-04-06T05:07:15;-0.80;6.20
1455;DHT22;721;48.168;12.818;2023-04-06T05:09:44;-0.70;5.40
1455;DHT22;721;48.168;12.818;2023-04-06T05:12:11;-0.60;5.10
1455;DHT22;721;48.168;12.818;2023-04-06T05:14:37;-0.60;4.80
1455;DHT22;721;48.168;12.818;2023-04-06T05:17:04;-0.50;4.20
1455;DHT22;721;48.168;12.818;2023-04-06T05:19:31;-0.40;3.70
1455;DHT22;721;48.168;12.818;2023-04-06T05:21:59;-0.30;4.10
1455;DHT22;721;48.168;12.818;2023-04-06T05:24:26;-0.20;3.50
1455;DHT22;721;48.168;12.818;2023-04-06T05:26:53;-0.10;3.50
1455;DHT22;721;48.168;12.818;2023-04-06T05:29:20;0.00;3.30
1455;DHT22;721;48.168;12.818;2023-04-06T05:31:47;0.00;3.80
1455;DHT22;721;48.168;12.818;2023-04-06T05:34:13;0.00;4.40
1455;DHT22;721;48.168;12.818;2023-04-06T05:36:40;0.00;5.90
1455;DHT22;721;48.168;12.818;2023-04-06T05:39:08;0.00;7.30
1455;DHT22;721;48.168;12.818;2023-04-06T05:41:35;0.00;8.00
1455;DHT22;721;48.168;12.818;2023-04-06T05:44:02;0.00;8.50
1455;DHT22;721;48.168;12.818;2023-04-06T05:46:29;0.00;8.70
1455;DHT22;721;48.168;12.818;2023-04-06T05:48:56;0.10;8.20
1455;DHT22;721;48.168;12.818;2023-04-06T05:51:23;0.20;6.90
1455;DHT22;721;48.168;12.818;2023-04-06T05:53:50;0.30;6.50
1455;DHT22;721;48.168;12.818;2023-04-06T05:56:18;0.40;6.10
1455;DHT22;721;48.168;12.818;2023-04-06T05:58:45;0.40;5.20
1455;DHT22;721;48.168;12.818;2023-04-06T06:01:12;0.50;5.40
1455;DHT22;721;48.168;12.818;2023-04-06T06:03:39;0.60;4.90
1455;DHT22;721;48.168;12.818;2023-04-06T06:06:06;0.60;5.00
1455;DHT22;721;48.168;12.818;2023-04-06T06:08:33;0.70;5.20
1455;DHT22;721;48.168;12.818;2023-04-06T06:10:59;0.80;6.40
1455;DHT22;721;48.168;12.818;2023-04-06T06:13:29;0.80;6.60
1455;DHT22;721;48.168;12.818;2023-04-06T06:15:55;0.80;7.70
1455;DHT22;721;48.168;12.818;2023-04-06T06:18:22;0.90;8.10
1455;DHT22;721;48.168;12.818;2023-04-06T06:20:49;1.00;7.20
1455;DHT22;721;48.168;12.818;2023-04-06T06:23:16;1.10;5.50
1455;DHT22;721;48.168;12.818;2023-04-06T06:25:43;1.20;5.60
1455;DHT22;721;48.168;12.818;2023-04-06T06:28:10;1.30;5.40
1455;DHT22;721;48.168;12.818;2023-04-06T06:30:39;1.40;6.60
1455;DHT22;721;48.168;12.818;2023-04-06T06:33:05;1.50;5.60
1455;DHT22;721;48.168;12.818;2023-04-06T06:35:32;1.60;4.30
1455;DHT22;721;48.168;12.818;2023-04-06T06:37:59;1.80;2.50
1455;DHT22;721;48.168;12.818;2023-04-06T06:40:26;1.90;2.00
1455;DHT22;721;48.168;12.818;2023-04-06T06:42:52;1.90;1.60
1455;DHT22;721;48.168;12.818;2023-04-06T06:45:19;2.00;2.70
1455;DHT22;721;48.168;12.818;2023-04-06T06:47:47;2.00;3.80
1455;DHT22;721;48.168;12.818;2023-04-06T06:50:14;2.00;4.50
1455;DHT22;721;48.168;12.818;2023-04-06T06:52:41;2.00;5.20
1455;DHT22;721;48.168;12.818;2023-04-06T06:55:09;2.10;5.40
1455;DHT22;721;48.168;12.818;2023-04-06T06:57:36;2.30;2.80
1455;DHT22;721;48.168;12.818;2023-04-06T07:00:04;2.40;1.80
1455;DHT22;721;48.168;12.818;2023-04-06T07:02:34;2.60;1.70
1455;DHT22;721;48.168;12.818;2023-04-06T07:05:02;2.70;1.50
1455;DHT22;721;48.168;12.818;2023-04-06T07:07:29;2.90;1.00
1455;DHT22;721;48.168;12.818;2023-04-06T07:09:56;3.00;1.00
1455;DHT22;721;48.168;12.818;2023-04-06T07:12:23;3.20;1.00
1455;DHT22;721;48.168;12.818;2023-04-06T07:14:50;3.30;1.00
1455;DHT22;721;48.168;12.818;2023-04-06T07:17:17;3.50;1.00
1455;DHT22;721;48.168;12.818;2023-04-06T07:19:43;3.60;1.00
1455;DHT22;721;48.168;12.818;2023-04-06T07:22:12;3.70;1.00
1455;DHT22;721;48.168;12.818;2023-04-06T07:24:38;3.80;1.00
1455;DHT22;721;48.168;12.818;2023-04-06T07:27:05;3.90;1.00
1455;DHT22;721;48.168;12.818;2023-04-06T07:29:32;4.00;1.00
1455;DHT22;721;48.168;12.818;2023-04-06T07:31:59;4.10;1.00
1455;DHT22;721;48.168;12.818;2023-04-06T07:34:26;4.30;1.00
1455;DHT22;721;48.168;12.818;2023-04-06T07:36:53;4.30;1.00
1455;DHT22;721;48.168;12.818;2023-04-06T07:39:21;4.40;1.00
1455;DHT22;721;48.168;12.818;2023-04-06T07:41:48;4.60;1.00
1455;DHT22;721;48.168;12.818;2023-04-06T07:44:14;4.70;1.00
1455;DHT22;721;48.168;12.818;2023-04-06T07:46:41;4.90;1.00
1455;DHT22;721;48.168;12.818;2023-04-06T07:49:08;5.00;1.00
1455;DHT22;721;48.168;12.818;2023-04-06T07:51:36;5.10;1.00
1455;DHT22;721;48.168;12.818;2023-04-06T07:54:03;5.20;1.00
1455;DHT22;721;48.168;12.818;2023-04-06T07:56:31;5.30;1.00
1455;DHT22;721;48.168;12.818;2023-04-06T07:58:58;5.50;1.00
1455;DHT22;721;48.168;12.818;2023-04-06T08:01:25;5.70;1.00
1455;DHT22;721;48.168;12.818;2023-04-06T08:03:52;5.80;1.00
1455;DHT22;721;48.168;12.818;2023-04-06T08:06:21;5.70;1.00
1455;DHT22;721;48.168;12.818;2023-04-06T08:08:47;5.90;1.00
1455;DHT22;721;48.168;12.818;2023-04-06T08:11:14;5.90;1.00
1455;DHT22;721;48.168;12.818;2023-04-06T08:13:42;6.00;1.00
1455;DHT22;721;48.168;12.818;2023-04-06T08:16:09;6.10;1.00
1455;DHT22;721;48.168;12.818;2023-04-06T08:18:36;6.20;1.00
1455;DHT22;721;48.168;12.818;2023-04-06T08:21:03;6.40;1.00
1455;DHT22;721;48.168;12.818;2023-04-06T08:23:29;6.60;1.00
1455;DHT22;721;48.168;12.818;2023-04-06T08:25:57;6.60;1.00
1455;DHT22;721;48.168;12.818;2023-04-06T08:28:24;6.70;1.00
1455;DHT22;721;48.168;12.818;2023-04-06T08:30:52;6.70;1.00
1455;DHT22;721;48.168;12.818;2023-04-06T08:33:19;6.60;1.00
1455;DHT22;721;48.168;12.818;2023-04-06T08:35:46;6.50;1.00
1455;DHT22;721;48.168;12.818;2023-04-06T08:38:12;6.50;1.00
1455;DHT22;721;48.168;12.818;2023-04-06T08:40:40;6.70;1.00
1455;DHT22;721;48.168;12.818;2023-04-06T08:43:12;6.70;1.00
1455;DHT22;721;48.168;12.818;2023-04-06T08:45:41;6.80;1.00
1455;DHT22;721;48.168;12.818;2023-04-06T08:48:09;6.90;1.00
1455;DHT22;721;48.168;12.818;2023-04-06T08:50:36;7.10;1.00
1455;DHT22;721;48.168;12.818;2023-04-06T08:53:06;7.30;1.00
1455;DHT22;721;48.168;12.818;2023-04-06T08:55:32;7.40;1.00
1455;DHT22;721;48.168;12.818;2023-04-06T08:58:00;7.50;1.00
1455;DHT22;721;48.168;12.818;2023-04-06T09:00:28;7.60;1.00
1455;DHT22;721;48.168;12.818;2023-04-06T09:02:56;7.60;1.00
1455;DHT22;721;48.168;12.818;2023-04-06T09:05:25;7.70;1.00
1455;DHT22;721;48.168;12.818;2023-04-06T09:07:52;7.80;1.00
1455;DHT22;721;48.168;12.818;2023-04-06T09:10:19;8.00;1.00
1455;DHT22;721;48.168;12.818;2023-04-06T09:12:49;8.10;1.00
1455;DHT22;721;48.168;12.818;2023-04-06T09:15:19;8.20;1.00
1455;DHT22;721;48.168;12.818;2023-04-06T09:17:46;8.30;1.00
1455;DHT22;721;48.168;12.818;2023-04-06T09:20:13;8.40;1.00
1455;DHT22;721;48.168;12.818;2023-04-06T09:22:41;8.30;1.00
1455;DHT22;721;48.168;12.818;2023-04-06T09:25:09;8.60;1.00
1455;DHT22;721;48.168;12.818;2023-04-06T09:27:37;8.60;1.00
1455;DHT22;721;48.168;12.818;2023-04-06T09:30:08;8.60;1.00
1455;DHT22;721;48.168;12.818;2023-04-06T09:32:46;8.50;1.00
1455;DHT22;721;48.168;12.818;2023-04-06T09:35:13;8.70;1.00
1455;DHT22;721;48.168;12.818;2023-04-06T09:37:42;8.70;1.00
1455;DHT22;721;48.168;12.818;2023-04-06T09:40:09;8.70;1.00
1455;DHT22;721;48.168;12.818;2023-04-06T09:42:36;8.80;1.00
1455;DHT22;721;48.168;12.818;2023-04-06T09:45:04;8.80;1.00
1455;DHT22;721;48.168;12.818;2023-04-06T09:47:32;8.80;1.00
1455;DHT22;721;48.168;12.818;2023-04-06T09:50:00;9.00;1.00
1455;DHT22;721;48.168;12.818;2023-04-06T09:52:32;8.90;1.00
1455;DHT22;721;48.168;12.818;2023-04-06T09:55:03;8.80;1.00
1455;DHT22;721;48.168;12.818;2023-04-06T09:57:33;8.90;1.00
1455;DHT22;721;48.168;12.818;2023-04-06T10:00:06;9.10;1.00
1455;DHT22;721;48.168;12.818;2023-04-06T10:02:40;9.40;1.00
1455;DHT22;721;48.168;12.818;2023-04-06T10:05:21;9.70;1.00
1455;DHT22;721;48.168;12.818;2023-04-06T10:07:51;9.70;1.00
1455;DHT22;721;48.168;12.818;2023-04-06T10:10:21;9.80;1.00
1455;DHT22;721;48.168;12.818;2023-04-06T10:12:48;9.80;1.00
1455;DHT22;721;48.168;12.818;2023-04-06T10:15:15;9.90;1.00
1455;DHT22;721;48.168;12.818;2023-04-06T10:17:42;10.00;1.00
1455;DHT22;721;48.168;12.818;2023-04-06T10:20:14;10.10;1.00
1455;DHT22;721;48.168;12.818;2023-04-06T10:22:52;10.20;1.00
1455;DHT22;721;48.168;12.818;2023-04-06T10:25:28;10.20;1.00
1455;DHT22;721;48.168;12.818;2023-04-06T10:27:59;10.30;1.00
1455;DHT22;721;48.168;12.818;2023-04-06T10:30:33;10.40;1.00
1455;DHT22;721;48.168;12.818;2023-04-06T10:32:59;10.50;1.00
1455;DHT22;721;48.168;12.818;2023-04-06T10:35:36;10.30;1.00
1455;DHT22;721;48.168;12.818;2023-04-06T10:38:04;10.10;1.00
1455;DHT22;721;48.168;12.818;2023-04-06T10:40:35;10.10;1.00
1455;DHT22;721;48.168;12.818;2023-04-06T10:43:09;9.90;1.00
1455;DHT22;721;48.168;12.818;2023-04-06T10:45:37;9.70;1.00
1455;DHT22;721;48.168;12.818;2023-04-06T10:48:14;9.50;1.00
1455;DHT22;721;48.168;12.818;2023-04-06T10:50:41;9.60;1.00
1455;DHT22;721;48.168;12.818;2023-04-06T10:53:08;9.90;1.00
1455;DHT22;721;48.168;12.818;2023-04-06T10:55:38;9.80;1.00
1455;DHT22;721;48.168;12.818;2023-04-06T10:58:06;9.80;1.00
1455;DHT22;721;48.168;12.818;2023-04-06T11:00:33;9.70;1.00
1455;DHT22;721;48.168;12.818;2023-04-06T11:03:00;9.90;1.00
1455;DHT22;721;48.168;12.818;2023-04-06T11:05:27;9.90;1.00
1455;DHT22;721;48.168;12.818;2023-04-06T11:07:54;10.10;1.00
1455;DHT22;721;48.168;12.818;2023-04-06T11:10:21;10.10;1.00
1455;DHT22;721;48.168;12.818;2023-04-06T11:12:54;10.10;1.00
1455;DHT22;721;48.168;12.818;2023-04-06T11:15:21;9.90;1.00
1455;DHT22;721;48.168;12.818;2023-04-06T11:17:47;9.60;1.00
1455;DHT22;721;48.168;12.818;2023-04-06T11:20:15;9.50;1.00
1455;DHT22;721;48.168;12.818;2023-04-06T11:22:50;9.60;1.00
1455;DHT22;721;48.168;12.818;2023-04-06T11:25:17;9.70;1.00
1455;DHT22;721;48.168;12.818;2023-04-06T11:27:45;9.80;1.00
1455;DHT22;721;48.168;12.818;2023-04-06T11:30:14;10.20;1.00
1455;DHT22;721;48.168;12.818;2023-04-06T11:32:42;10.50;1.00
1455;DHT22;721;48.168;12.818;2023-04-06T11:35:11;10.60;1.00
1455;DHT22;721;48.168;12.818;2023-04-06T11:37:39;10.50;1.00
1455;DHT22;721;48.168;12.818;2023-04-06T11:40:08;10.60;1.00
1455;DHT22;721;48.168;12.818;2023-04-06T11:42:35;10.50;1.00
1455;DHT22;721;48.168;12.818;2023-04-06T11:45:03;10.50;1.00
1455;DHT22;721;48.168;12.818;2023-04-06T11:47:33;10.50;1.00
1455;DHT22;721;48.168;12.818;2023-04-06T11:50:08;10.60;1.00
1455;DHT22;721;48.168;12.818;2023-04-06T11:52:35;10.40;1.00
1455;DHT22;721;48.168;12.818;2023-04-06T11:55:11;10.40;1.00
1455;DHT22;721;48.168;12.818;2023-04-06T11:57:38;10.10;1.00
1455;DHT22;721;48.168;12.818;2023-04-06T12:00:06;10.00;1.00
1455;DHT22;721;48.168;12.818;2023-04-06T12:02:35;10.20;1.00
1455;DHT22;721;48.168;12.818;2023-04-06T12:05:02;10.30;1.00
1455;DHT22;721;48.168;12.818;2023-04-06T12:07:29;10.50;1.00
1455;DHT22;721;48.168;12.818;2023-04-06T12:09:56;10.60;1.00
1455;DHT22;721;48.168;12.818;2023-04-06T12:12:23;10.80;1.00
1455;DHT22;721;48.168;12.818;2023-04-06T12:14:50;11.00;1.00
1455;DHT22;721;48.168;12.818;2023-04-06T12:17:18;11.00;1.00
1455;DHT22;721;48.168;12.818;2023-04-06T12:19:47;10.90;1.00
1455;DHT22;721;48.168;12.818;2023-04-06T12:22:14;10.60;1.00
1455;DHT22;721;48.168;12.818;2023-04-06T12:24:41;10.50;1.00
1455;DHT22;721;48.168;12.818;2023-04-06T12:27:08;10.40;1.00
1455;DHT22;721;48.168;12.818;2023-04-06T12:29:37;10.50;1.00
1455;DHT22;721;48.168;12.818;2023-04-06T12:32:03;10.70;1.00
1455;DHT22;721;48.168;12.818;2023-04-06T12:34:30;10.70;1.00
1455;DHT22;721;48.168;12.818;2023-04-06T12:36:58;10.80;1.00
1455;DHT22;721;48.168;12.818;2023-04-06T12:39:26;11.10;1.00
1455;DHT22;721;48.168;12.818;2023-04-06T12:41:53;11.20;1.00
1455;DHT22;721;48.168;12.818;2023-04-06T12:44:20;11.20;1.00
1455;DHT22;721;48.168;12.818;2023-04-06T12:46:47;11.30;1.00
1455;DHT22;721;48.168;12.818;2023-04-06T12:49:14;11.40;1.00
1455;DHT22;721;48.168;12.818;2023-04-06T12:51:42;11.20;1.00
1455;DHT22;721;48.168;12.818;2023-04-06T12:54:10;11.00;1.00
1455;DHT22;721;48.168;12.818;2023-04-06T12:56:37;10.60;1.00
1455;DHT22;721;48.168;12.818;2023-04-06T12:59:04;10.50;1.00
1455;DHT22;721;48.168;12.818;2023-04-06T13:01:31;10.80;1.00
1455;DHT22;721;48.168;12.818;2023-04-06T13:03:58;11.00;1.00
1455;DHT22;721;48.168;12.818;2023-04-06T13:06:25;10.90;1.00
1455;DHT22;721;48.168;12.818;2023-04-06T13:08:58;10.90;1.00
1455;DHT22;721;48.168;12.818;2023-04-06T13:11:27;10.90;1.00
1455;DHT22;721;48.168;12.818;2023-04-06T13:13:54;11.00;1.00
1455;DHT22;721;48.168;12.818;2023-04-06T13:16:21;11.20;1.00
1455;DHT22;721;48.168;12.818;2023-04-06T13:18:47;11.50;1.00
1455;DHT22;721;48.168;12.818;2023-04-06T13:21:16;11.90;1.00
1455;DHT22;721;48.168;12.818;2023-04-06T13:23:44;11.90;1.00
1455;DHT22;721;48.168;12.818;2023-04-06T13:26:11;12.10;1.00
1455;DHT22;721;48.168;12.818;2023-04-06T13:28:41;12.20;1.00
1455;DHT22;721;48.168;12.818;2023-04-06T13:31:08;12.40;1.00
1455;DHT22;721;48.168;12.818;2023-04-06T13:33:35;12.50;1.00
1455;DHT22;721;48.168;12.818;2023-04-06T13:36:03;12.60;1.00
1455;DHT22;721;48.168;12.818;2023-04-06T13:38:30;13.00;1.00
1455;DHT22;721;48.168;12.818;2023-04-06T13:40:57;12.90;1.00
1455;DHT22;721;48.168;12.818;2023-04-06T13:43:24;13.10;1.00
1455;DHT22;721;48.168;12.818;2023-04-06T13:45:54;12.80;1.00
1455;DHT22;721;48.168;12.818;2023-04-06T13:48:21;12.90;1.00
1455;DHT22;721;48.168;12.818;2023-04-06T13:50:48;12.90;1.00
1455;DHT22;721;48.168;12.818;2023-04-06T13:53:15;13.20;1.00
1455;DHT22;721;48.168;12.818;2023-04-06T13:55:42;13.40;1.00
1455;DHT22;721;48.168;12.818;2023-04-06T13:58:09;13.30;1.00
1455;DHT22;721;48.168;12.818;2023-04-06T14:00:37;13.00;1.00
1455;DHT22;721;48.168;12.818;2023-04-06T14:03:05;13.30;1.00
1455;DHT22;721;48.168;12.818;2023-04-06T14:05:33;13.50;1.00
1455;DHT22;721;48.168;12.818;2023-04-06T14:07:59;13.80;1.00
1455;DHT22;721;48.168;12.818;2023-04-06T14:10:26;14.00;1.00
1455;DHT22;721;48.168;12.818;2023-04-06T14:12:53;13.60;1.00
1455;DHT22;721;48.168;12.818;2023-04-06T14:15:21;13.10;1.00
1455;DHT22;721;48.168;12.818;2023-04-06T14:17:49;13.20;1.00
1455;DHT22;721;48.168;12.818;2023-04-06T14:20:18;13.10;1.00
1455;DHT22;721;48.168;12.818;2023-04-06T14:22:45;13.30;1.00
1455;DHT22;721;48.168;12.818;2023-04-06T14:25:11;13.60;1.00
1455;DHT22;721;48.168;12.818;2023-04-06T14:27:38;13.90;1.00
1455;DHT22;721;48.168;12.818;2023-04-06T14:30:06;14.10;1.00
1455;DHT22;721;48.168;12.818;2023-04-06T14:32:33;14.40;1.00
1455;DHT22;721;48.168;12.818;2023-04-06T14:35:01;14.90;1.00
1455;DHT22;721;48.168;12.818;2023-04-06T14:37:29;15.20;1.00
1455;DHT22;721;48.168;12.818;2023-04-06T14:39:56;15.40;1.00
1455;DHT22;721;48.168;12.818;2023-04-06T14:45:40;15.10;1.00
1455;DHT22;721;48.168;12.818;2023-04-06T14:48:07;15.00;1.00
1455;DHT22;721;48.168;12.818;2023-04-06T14:50:37;14.80;1.00
1455;DHT22;721;48.168;12.818;2023-04-06T14:53:05;14.90;1.00
1455;DHT22;721;48.168;12.818;2023-04-06T14:55:32;14.80;1.00
1455;DHT22;721;48.168;12.818;2023-04-06T14:57:59;15.30;1.00
1455;DHT22;721;48.168;12.818;2023-04-06T15:00:26;15.30;1.00
1455;DHT22;721;48.168;12.818;2023-04-06T15:02:53;15.20;1.00
1455;DHT22;721;48.168;12.818;2023-04-06T15:05:20;14.60;1.00
1455;DHT22;721;48.168;12.818;2023-04-06T15:07:59;14.30;1.00
1455;DHT22;721;48.168;12.818;2023-04-06T15:10:27;13.90;1.00
1455;DHT22;721;48.168;12.818;2023-04-06T15:12:54;14.00;1.00
1455;DHT22;721;48.168;12.818;2023-04-06T15:15:20;13.60;1.00
1455;DHT22;721;48.168;12.818;2023-04-06T15:17:47;14.00;1.00
1455;DHT22;721;48.168;12.818;2023-04-06T15:20:14;14.20;1.00
1455;DHT22;721;48.168;12.818;2023-04-06T15:22:41;14.10;1.00
1455;DHT22;721;48.168;12.818;2023-04-06T15:25:08;14.20;1.00
1455;DHT22;721;48.168;12.818;2023-04-06T15:27:36;14.60;1.00
1455;DHT22;721;48.168;12.818;2023-04-06T15:30:04;14.30;1.00
1455;DHT22;721;48.168;12.818;2023-04-06T15:32:31;14.40;1.00
1455;DHT22;721;48.168;12.818;2023-04-06T15:34:58;14.80;1.00
1455;DHT22;721;48.168;12.818;2023-04-06T15:37:25;14.90;1.00
1455;DHT22;721;48.168;12.818;2023-04-06T15:39:52;15.40;1.00
1455;DHT22;721;48.168;12.818;2023-04-06T15:42:19;15.50;1.00
1455;DHT22;721;48.168;12.818;2023-04-06T15:44:47;15.40;1.00
1455;DHT22;721;48.168;12.818;2023-04-06T15:47:14;15.20;1.00
1455;DHT22;721;48.168;12.818;2023-04-06T15:49:40;15.10;1.00
1455;DHT22;721;48.168;12.818;2023-04-06T15:52:07;15.30;1.00
1455;DHT22;721;48.168;12.818;2023-04-06T15:54:34;15.00;1.00
1455;DHT22;721;48.168;12.818;2023-04-06T15:57:05;14.60;1.00
1455;DHT22;721;48.168;12.818;2023-04-06T15:59:32;14.50;1.00
1455;DHT22;721;48.168;12.818;2023-04-06T16:02:00;14.50;1.00
1455;DHT22;721;48.168;12.818;2023-04-06T16:04:27;14.60;1.00
1455;DHT22;721;48.168;12.818;2023-04-06T16:06:54;14.90;1.00
1455;DHT22;721;48.168;12.818;2023-04-06T16:09:21;14.80;1.00
1455;DHT22;721;48.168;12.818;2023-04-06T16:11:48;14.90;1.00
1455;DHT22;721;48.168;12.818;2023-04-06T16:14:14;14.50;1.00
1455;DHT22;721;48.168;12.818;2023-04-06T16:16:41;14.00;1.00
1455;DHT22;721;48.168;12.818;2023-04-06T16:19:10;13.90;1.00
1455;DHT22;721;48.168;12.818;2023-04-06T16:21:36;13.90;1.00
1455;DHT22;721;48.168;12.818;2023-04-06T16:24:03;13.60;1.00
1455;DHT22;721;48.168;12.818;2023-04-06T16:26:31;13.50;1.00
1455;DHT22;721;48.168;12.818;2023-04-06T16:28:58;13.70;1.00
1455;DHT22;721;48.168;12.818;2023-04-06T16:31:25;13.80;1.00
1455;DHT22;721;48.168;12.818;2023-04-06T16:33:54;14.10;1.00
1455;DHT22;721;48.168;12.818;2023-04-06T16:36:22;13.90;1.00